sensor_id;sensor_type;location;lat;lon;timestamp;temperature;humidity
6462;DHT22;3264;42.862;25.098;2023-05-10T00:01:12;9.60;99.90
6462;DHT22;3264;42.862;25.098;2023-05-10T00:03:41;9.50;99.90
6462;DHT22;3264;42.862;25.098;2023-05-10T00:06:10;9.50;99.90
6462;DHT22;3264;42.862;25.098;2023-05-10T00:08:39;9.60;99.90
6462;DHT22;3264;42.862;25.098;2023-05-10T00:11:08;9.60;99.90
6462;DHT22;3264;42.862;25.098;2023-05-10T00:13:35;9.60;99.90
6462;DHT22;3264;42.862;25.098;2023-05-10T00:16:05;9.60;99.90
6462;DHT22;3264;42.862;25.098;2023-05-10T00:18:33;9.60;99.90
6462;DHT22;3264;42.862;25.098;2023-05-10T00:21:02;9.50;99.90
6462;DHT22;3264;42.862;25.098;2023-05-10T00:23:30;9.40;99.90
6462;DHT22;3264;42.862;25.098;2023-05-10T00:26:00;9.40;99.90
6462;DHT22;3264;42.862;25.098;2023-05-10T00:28:29;9.40;99.90
6462;DHT22;3264;42.862;25.098;2023-05-10T00:30:57;9.40;99.90
6462;DHT22;3264;42.862;25.098;2023-05-10T00:33:26;9.40;99.90
6462;DHT22;3264;42.862;25.098;2023-05-10T00:35:54;9.30;99.90
6462;DHT22;3264;42.862;25.098;2023-05-10T00:38:22;9.20;99.90
6462;DHT22;3264;42.862;25.098;2023-05-10T00:40:51;9.20;99.90
6462;DHT22;3264;42.862;25.098;2023-05-10T00:43:21;9.30;99.90
6462;DHT22;3264;42.862;25.098;2023-05-10T00:45:50;9.30;99.90
6462;DHT22;3264;42.862;25.098;2023-05-10T00:48:18;9.40;99.90
6462;DHT22;3264;42.862;25.098;2023-05-10T00:50:47;9.40;99.90
6462;DHT22;3264;42.862;25.098;2023-05-10T00:53:16;9.30;99.90
6462;DHT22;3264;42.862;25.098;2023-05-10T00:55:44;9.40;99.90
6462;DHT22;3264;42.862;25.098;2023-05-10T00:58:12;9.30;99.90
6462;DHT22;3264;42.862;25.098;2023-05-10T01:00:43;9.40;99.90
6462;DHT22;3264;42.862;25.098;2023-05-10T01:03:14;9.30;99.90
6462;DHT22;3264;42.862;25.098;2023-05-10T01:05:42;9.40;99.90
6462;DHT22;3264;42.862;25.098;2023-05-10T01:08:11;9.30;99.90
6462;DHT22;3264;42.862;25.098;2023-05-10T01:10:40;9.30;99.90
6462;DHT22;3264;42.862;25.098;2023-05-10T01:13:09;9.30;99.90
6462;DHT22;3264;42.862;25.098;2023-05-10T01:15:39;9.30;99.90
6462;DHT22;3264;42.862;25.098;2023-05-10T01:18:20;9.30;99.90
6462;DHT22;3264;42.862;25.098;2023-05-10T01:20:56;9.20;99.90
6462;DHT22;3264;42.862;25.098;2023-05-10T01:23:41;9.20;99.90
6462;DHT22;3264;42.862;25.098;2023-05-10T01:26:39;9.20;99.90
6462;DHT22;3264;42.862;25.098;2023-05-10T01:29:46;9.10;99.90
6462;DHT22;3264;42.862;25.098;2023-05-10T01:32:30;9.10;99.90
6462;DHT22;3264;42.862;25.098;2023-05-10T01:35:03;9.10;99.90
6462;DHT22;3264;42.862;25.098;2023-05-10T01:37:39;9.10;99.90
6462;DHT22;3264;42.862;25.098;2023-05-10T01:40:14;9.10;99.90
6462;DHT22;3264;42.862;25.098;2023-05-10T01:42:48;9.10;99.90
6462;DHT22;3264;42.862;25.098;2023-05-10T01:45:22;9.00;99.90
6462;DHT22;3264;42.862;25.098;2023-05-10T01:47:58;9.00;99.90
6462;DHT22;3264;42.862;25.098;2023-05-10T01:50:30;9.00;99.90
6462;DHT22;3264;42.862;25.098;2023-05-10T01:53:02;9.00;99.90
6462;DHT22;3264;42.862;25.098;2023-05-10T01:55:35;8.90;99.90
6462;DHT22;3264;42.862;25.098;2023-05-10T01:58:05;9.00;99.90
6462;DHT22;3264;42.862;25.098;2023-05-10T02:00:34;8.90;99.90
6462;DHT22;3264;42.862;25.098;2023-05-10T02:03:07;8.90;99.90
6462;DHT22;3264;42.862;25.098;2023-05-10T02:05:37;8.90;99.90
6462;DHT22;3264;42.862;25.098;2023-05-10T02:08:06;8.80;99.90
6462;DHT22;3264;42.862;25.098;2023-05-10T02:10:36;8.80;99.90
6462;DHT22;3264;42.862;25.098;2023-05-10T02:13:41;8.70;99.90
6462;DHT22;3264;42.862;25.098;2023-05-10T02:16:10;8.80;99.90
6462;DHT22;3264;42.862;25.098;2023-05-10T02:18:41;8.70;99.90
6462;DHT22;3264;42.862;25.098;2023-05-10T02:21:10;8.60;99.90
6462;DHT22;3264;42.862;25.098;2023-05-10T02:23:39;8.60;99.90
6462;DHT22;3264;42.862;25.098;2023-05-10T02:29:31;8.60;99.90
6462;DHT22;3264;42.862;25.098;2023-05-10T02:32:00;8.40;99.90
6462;DHT22;3264;42.862;25.098;2023-05-10T02:34:31;8.60;99.90
6462;DHT22;3264;42.862;25.098;2023-05-10T02:37:01;8.60;99.90
6462;DHT22;3264;42.862;25.098;2023-05-10T02:39:31;8.50;99.90
6462;DHT22;3264;42.862;25.098;2023-05-10T02:42:01;8.40;99.90
6462;DHT22;3264;42.862;25.098;2023-05-10T02:44:39;8.40;99.90
6462;DHT22;3264;42.862;25.098;2023-05-10T02:47:09;8.40;99.90
6462;DHT22;3264;42.862;25.098;2023-05-10T02:49:38;8.50;99.90
6462;DHT22;3264;42.862;25.098;2023-05-10T02:52:07;8.50;99.90
6462;DHT22;3264;42.862;25.098;2023-05-10T02:54:41;8.40;99.90
6462;DHT22;3264;42.862;25.098;2023-05-10T02:57:16;8.50;99.90
6462;DHT22;3264;42.862;25.098;2023-05-10T02:59:46;8.40;99.90
6462;DHT22;3264;42.862;25.098;2023-05-10T03:02:13;8.40;99.90
6462;DHT22;3264;42.862;25.098;2023-05-10T03:04:42;8.40;99.90
6462;DHT22;3264;42.862;25.098;2023-05-10T03:07:11;8.30;99.90
6462;DHT22;3264;42.862;25.098;2023-05-10T03:09:40;8.20;99.90
6462;DHT22;3264;42.862;25.098;2023-05-10T03:12:11;8.10;99.90
6462;DHT22;3264;42.862;25.098;2023-05-10T03:14:48;8.20;99.90
6462;DHT22;3264;42.862;25.098;2023-05-10T03:17:23;8.00;99.90
6462;DHT22;3264;42.862;25.098;2023-05-10T03:19:56;8.10;99.90
6462;DHT22;3264;42.862;25.098;2023-05-10T03:22:28;8.10;99.90
6462;DHT22;3264;42.862;25.098;2023-05-10T03:25:01;8.10;99.90
6462;DHT22;3264;42.862;25.098;2023-05-10T03:27:32;8.00;99.90
6462;DHT22;3264;42.862;25.098;2023-05-10T03:30:00;8.00;99.90
6462;DHT22;3264;42.862;25.098;2023-05-10T03:32:29;7.90;99.90
6462;DHT22;3264;42.862;25.098;2023-05-10T03:35:00;8.00;99.90
6462;DHT22;3264;42.862;25.098;2023-05-10T03:37:28;8.00;99.90
6462;DHT22;3264;42.862;25.098;2023-05-10T03:39:56;8.10;99.90
6462;DHT22;3264;42.862;25.098;2023-05-10T03:42:24;8.10;99.90
6462;DHT22;3264;42.862;25.098;2023-05-10T03:44:53;8.10;99.90
6462;DHT22;3264;42.862;25.098;2023-05-10T03:47:21;8.20;99.90
6462;DHT22;3264;42.862;25.098;2023-05-10T03:49:49;8.30;99.90
6462;DHT22;3264;42.862;25.098;2023-05-10T03:52:18;8.40;99.90
6462;DHT22;3264;42.862;25.098;2023-05-10T03:54:46;8.40;99.90
6462;DHT22;3264;42.862;25.098;2023-05-10T03:57:14;8.30;99.90
6462;DHT22;3264;42.862;25.098;2023-05-10T03:59:42;8.20;99.90
6462;DHT22;3264;42.862;25.098;2023-05-10T04:02:09;8.20;99.90
6462;DHT22;3264;42.862;25.098;2023-05-10T04:04:37;8.30;99.90
6462;DHT22;3264;42.862;25.098;2023-05-10T04:07:05;8.40;99.90
6462;DHT22;3264;42.862;25.098;2023-05-10T04:09:35;8.30;99.90
6462;DHT22;3264;42.862;25.098;2023-05-10T04:12:05;8.40;99.90
6462;DHT22;3264;42.862;25.098;2023-05-10T04:14:32;8.40;99.90
6462;DHT22;3264;42.862;25.098;2023-05-10T04:17:01;8.40;99.90
6462;DHT22;3264;42.862;25.098;2023-05-10T04:19:34;8.20;99.90
6462;DHT22;3264;42.862;25.098;2023-05-10T04:22:03;8.30;99.90
6462;DHT22;3264;42.862;25.098;2023-05-10T04:24:31;8.40;99.90
6462;DHT22;3264;42.862;25.098;2023-05-10T04:27:00;8.30;99.90
6462;DHT22;3264;42.862;25.098;2023-05-10T04:29:29;8.40;99.90
6462;DHT22;3264;42.862;25.098;2023-05-10T04:31:57;8.50;99.90
6462;DHT22;3264;42.862;25.098;2023-05-10T04:34:24;8.50;99.90
6462;DHT22;3264;42.862;25.098;2023-05-10T04:36:53;8.60;99.90
6462;DHT22;3264;42.862;25.098;2023-05-10T04:39:22;8.50;99.90
6462;DHT22;3264;42.862;25.098;2023-05-10T04:41:49;8.40;99.90
6462;DHT22;3264;42.862;25.098;2023-05-10T04:44:19;8.60;99.90
6462;DHT22;3264;42.862;25.098;2023-05-10T04:46:48;8.60;99.90
6462;DHT22;3264;42.862;25.098;2023-05-10T04:49:15;8.80;99.90
6462;DHT22;3264;42.862;25.098;2023-05-10T04:51:44;8.90;99.90
6462;DHT22;3264;42.862;25.098;2023-05-10T04:54:12;9.00;99.90
6462;DHT22;3264;42.862;25.098;2023-05-10T04:56:40;9.10;99.90
6462;DHT22;3264;42.862;25.098;2023-05-10T04:59:09;9.00;99.90
6462;DHT22;3264;42.862;25.098;2023-05-10T05:01:39;9.00;99.90
6462;DHT22;3264;42.862;25.098;2023-05-10T05:04:07;8.90;99.90
6462;DHT22;3264;42.862;25.098;2023-05-10T05:06:35;9.00;99.90
6462;DHT22;3264;42.862;25.098;2023-05-10T05:09:06;9.20;99.90
6462;DHT22;3264;42.862;25.098;2023-05-10T05:11:34;9.20;99.90
6462;DHT22;3264;42.862;25.098;2023-05-10T05:14:03;9.10;99.90
6462;DHT22;3264;42.862;25.098;2023-05-10T05:16:32;9.20;99.90
6462;DHT22;3264;42.862;25.098;2023-05-10T05:19:02;9.30;99.90
6462;DHT22;3264;42.862;25.098;2023-05-10T05:21:29;9.40;99.90
6462;DHT22;3264;42.862;25.098;2023-05-10T05:23:58;9.30;99.90
6462;DHT22;3264;42.862;25.098;2023-05-10T05:26:27;9.20;99.90
6462;DHT22;3264;42.862;25.098;2023-05-10T05:28:55;9.30;99.90
6462;DHT22;3264;42.862;25.098;2023-05-10T05:31:23;9.70;99.90
6462;DHT22;3264;42.862;25.098;2023-05-10T05:33:51;9.80;99.90
6462;DHT22;3264;42.862;25.098;2023-05-10T05:36:21;9.60;99.90
6462;DHT22;3264;42.862;25.098;2023-05-10T05:38:50;9.50;99.90
6462;DHT22;3264;42.862;25.098;2023-05-10T05:41:18;9.80;99.90
6462;DHT22;3264;42.862;25.098;2023-05-10T05:43:48;9.90;99.90
6462;DHT22;3264;42.862;25.098;2023-05-10T05:46:16;9.90;99.90
6462;DHT22;3264;42.862;25.098;2023-05-10T05:48:44;10.30;99.90
6462;DHT22;3264;42.862;25.098;2023-05-10T05:51:12;10.20;99.90
6462;DHT22;3264;42.862;25.098;2023-05-10T05:53:42;10.40;99.90
6462;DHT22;3264;42.862;25.098;2023-05-10T05:56:11;10.20;99.90
6462;DHT22;3264;42.862;25.098;2023-05-10T05:58:39;10.40;99.90
6462;DHT22;3264;42.862;25.098;2023-05-10T06:01:06;10.80;99.90
6462;DHT22;3264;42.862;25.098;2023-05-10T06:03:34;11.10;99.90
6462;DHT22;3264;42.862;25.098;2023-05-10T06:06:12;11.10;99.90
6462;DHT22;3264;42.862;25.098;2023-05-10T06:08:42;10.90;99.90
6462;DHT22;3264;42.862;25.098;2023-05-10T06:11:11;11.30;99.90
6462;DHT22;3264;42.862;25.098;2023-05-10T06:13:38;11.20;99.90
6462;DHT22;3264;42.862;25.098;2023-05-10T06:16:06;11.20;99.90
6462;DHT22;3264;42.862;25.098;2023-05-10T06:18:35;11.40;99.90
6462;DHT22;3264;42.862;25.098;2023-05-10T06:21:03;11.60;99.90
6462;DHT22;3264;42.862;25.098;2023-05-10T06:23:34;11.60;99.90
6462;DHT22;3264;42.862;25.098;2023-05-10T06:26:03;11.80;99.90
6462;DHT22;3264;42.862;25.098;2023-05-10T06:28:32;12.10;99.90
6462;DHT22;3264;42.862;25.098;2023-05-10T06:30:59;12.10;99.90
6462;DHT22;3264;42.862;25.098;2023-05-10T06:33:27;12.10;99.90
6462;DHT22;3264;42.862;25.098;2023-05-10T06:35:56;12.20;99.90
6462;DHT22;3264;42.862;25.098;2023-05-10T06:38:25;12.20;99.90
6462;DHT22;3264;42.862;25.098;2023-05-10T06:40:53;12.20;99.90
6462;DHT22;3264;42.862;25.098;2023-05-10T06:43:23;12.20;99.90
6462;DHT22;3264;42.862;25.098;2023-05-10T06:45:53;12.30;99.90
6462;DHT22;3264;42.862;25.098;2023-05-10T06:48:21;12.10;99.90
6462;DHT22;3264;42.862;25.098;2023-05-10T06:50:49;12.40;99.90
6462;DHT22;3264;42.862;25.098;2023-05-10T06:53:17;12.30;99.90
6462;DHT22;3264;42.862;25.098;2023-05-10T06:55:45;12.70;99.90
6462;DHT22;3264;42.862;25.098;2023-05-10T06:58:14;13.10;99.90
6462;DHT22;3264;42.862;25.098;2023-05-10T07:00:43;13.00;99.90
6462;DHT22;3264;42.862;25.098;2023-05-10T07:03:13;12.40;99.90
6462;DHT22;3264;42.862;25.098;2023-05-10T07:05:42;12.70;99.90
6462;DHT22;3264;42.862;25.098;2023-05-10T07:08:11;12.70;93.20
6462;DHT22;3264;42.862;25.098;2023-05-10T07:10:39;12.90;93.60
6462;DHT22;3264;42.862;25.098;2023-05-10T07:13:07;12.80;99.90
6462;DHT22;3264;42.862;25.098;2023-05-10T07:15:35;13.10;99.90
6462;DHT22;3264;42.862;25.098;2023-05-10T07:18:05;13.70;99.90
6462;DHT22;3264;42.862;25.098;2023-05-10T07:20:32;14.00;99.90
6462;DHT22;3264;42.862;25.098;2023-05-10T07:23:00;13.90;99.90
6462;DHT22;3264;42.862;25.098;2023-05-10T07:25:29;14.20;99.90
6462;DHT22;3264;42.862;25.098;2023-05-10T07:27:57;14.10;98.00
6462;DHT22;3264;42.862;25.098;2023-05-10T07:30:26;13.90;93.30
6462;DHT22;3264;42.862;25.098;2023-05-10T07:32:54;14.10;91.70
6462;DHT22;3264;42.862;25.098;2023-05-10T07:35:24;14.50;98.60
6462;DHT22;3264;42.862;25.098;2023-05-10T07:37:53;13.70;81.50
6462;DHT22;3264;42.862;25.098;2023-05-10T07:40:22;14.70;94.00
6462;DHT22;3264;42.862;25.098;2023-05-10T07:42:49;15.00;99.90
6462;DHT22;3264;42.862;25.098;2023-05-10T07:45:18;14.70;91.30
6462;DHT22;3264;42.862;25.098;2023-05-10T07:47:45;14.10;82.70
6462;DHT22;3264;42.862;25.098;2023-05-10T07:50:14;14.60;90.70
6462;DHT22;3264;42.862;25.098;2023-05-10T07:52:43;14.40;87.00
6462;DHT22;3264;42.862;25.098;2023-05-10T07:55:12;14.30;90.10
6462;DHT22;3264;42.862;25.098;2023-05-10T07:57:41;14.50;90.70
6462;DHT22;3264;42.862;25.098;2023-05-10T08:00:12;14.30;87.50
6462;DHT22;3264;42.862;25.098;2023-05-10T08:02:41;14.90;80.20
6462;DHT22;3264;42.862;25.098;2023-05-10T08:05:09;15.10;87.90
6462;DHT22;3264;42.862;25.098;2023-05-10T08:07:39;15.20;89.50
6462;DHT22;3264;42.862;25.098;2023-05-10T08:10:11;15.30;87.50
6462;DHT22;3264;42.862;25.098;2023-05-10T08:12:39;15.00;83.30
6462;DHT22;3264;42.862;25.098;2023-05-10T08:15:08;15.40;92.80
6462;DHT22;3264;42.862;25.098;2023-05-10T08:17:37;14.90;86.50
6462;DHT22;3264;42.862;25.098;2023-05-10T08:20:06;14.10;71.10
6462;DHT22;3264;42.862;25.098;2023-05-10T08:22:34;14.40;71.60
6462;DHT22;3264;42.862;25.098;2023-05-10T08:25:01;14.90;90.40
6462;DHT22;3264;42.862;25.098;2023-05-10T08:27:31;15.00;90.70
6462;DHT22;3264;42.862;25.098;2023-05-10T08:29:58;15.30;98.50
6462;DHT22;3264;42.862;25.098;2023-05-10T08:32:26;14.90;78.80
6462;DHT22;3264;42.862;25.098;2023-05-10T08:34:54;15.40;87.70
6462;DHT22;3264;42.862;25.098;2023-05-10T08:37:23;16.50;82.20
6462;DHT22;3264;42.862;25.098;2023-05-10T08:39:50;16.70;79.40
6462;DHT22;3264;42.862;25.098;2023-05-10T08:42:21;16.70;82.50
6462;DHT22;3264;42.862;25.098;2023-05-10T08:44:52;16.90;78.20
6462;DHT22;3264;42.862;25.098;2023-05-10T08:47:21;15.60;68.80
6462;DHT22;3264;42.862;25.098;2023-05-10T08:49:49;16.70;70.40
6462;DHT22;3264;42.862;25.098;2023-05-10T08:52:18;17.70;66.50
6462;DHT22;3264;42.862;25.098;2023-05-10T08:54:47;17.10;72.70
6462;DHT22;3264;42.862;25.098;2023-05-10T08:57:19;17.10;65.50
6462;DHT22;3264;42.862;25.098;2023-05-10T08:59:47;18.40;71.00
6462;DHT22;3264;42.862;25.098;2023-05-10T09:02:18;18.00;71.90
6462;DHT22;3264;42.862;25.098;2023-05-10T09:04:48;17.30;76.60
6462;DHT22;3264;42.862;25.098;2023-05-10T09:07:16;18.20;79.30
6462;DHT22;3264;42.862;25.098;2023-05-10T09:09:44;18.20;70.80
6462;DHT22;3264;42.862;25.098;2023-05-10T09:12:14;18.00;60.00
6462;DHT22;3264;42.862;25.098;2023-05-10T09:14:44;18.50;73.30
6462;DHT22;3264;42.862;25.098;2023-05-10T09:17:17;19.40;73.10
6462;DHT22;3264;42.862;25.098;2023-05-10T09:19:45;19.20;70.60
6462;DHT22;3264;42.862;25.098;2023-05-10T09:22:13;19.10;74.70
6462;DHT22;3264;42.862;25.098;2023-05-10T09:24:42;19.90;76.60
6462;DHT22;3264;42.862;25.098;2023-05-10T09:27:12;19.90;64.80
6462;DHT22;3264;42.862;25.098;2023-05-10T09:29:40;19.70;61.80
6462;DHT22;3264;42.862;25.098;2023-05-10T09:32:08;19.50;59.50
6462;DHT22;3264;42.862;25.098;2023-05-10T09:34:38;19.50;61.60
6462;DHT22;3264;42.862;25.098;2023-05-10T09:37:08;18.80;57.60
6462;DHT22;3264;42.862;25.098;2023-05-10T09:39:37;19.30;62.80
6462;DHT22;3264;42.862;25.098;2023-05-10T09:42:08;17.70;57.60
6462;DHT22;3264;42.862;25.098;2023-05-10T09:44:36;17.80;59.20
6462;DHT22;3264;42.862;25.098;2023-05-10T09:47:05;18.60;66.60
6462;DHT22;3264;42.862;25.098;2023-05-10T09:49:33;18.80;69.10
6462;DHT22;3264;42.862;25.098;2023-05-10T09:52:08;19.30;65.20
6462;DHT22;3264;42.862;25.098;2023-05-10T09:54:36;19.80;59.40
6462;DHT22;3264;42.862;25.098;2023-05-10T09:57:05;19.20;60.90
6462;DHT22;3264;42.862;25.098;2023-05-10T09:59:33;20.20;64.90
6462;DHT22;3264;42.862;25.098;2023-05-10T10:02:02;19.00;57.30
6462;DHT22;3264;42.862;25.098;2023-05-10T10:04:31;20.20;66.90
6462;DHT22;3264;42.862;25.098;2023-05-10T10:07:04;19.30;62.70
6462;DHT22;3264;42.862;25.098;2023-05-10T10:09:32;17.30;56.60
6462;DHT22;3264;42.862;25.098;2023-05-10T10:12:01;18.20;64.90
6462;DHT22;3264;42.862;25.098;2023-05-10T10:14:29;17.80;56.00
6462;DHT22;3264;42.862;25.098;2023-05-10T10:17:00;17.70;60.00
6462;DHT22;3264;42.862;25.098;2023-05-10T10:19:30;17.40;60.10
6462;DHT22;3264;42.862;25.098;2023-05-10T10:22:01;17.70;62.50
6462;DHT22;3264;42.862;25.098;2023-05-10T10:24:30;18.10;61.70
6462;DHT22;3264;42.862;25.098;2023-05-10T10:27:04;18.00;64.60
6462;DHT22;3264;42.862;25.098;2023-05-10T10:29:41;17.60;60.90
6462;DHT22;3264;42.862;25.098;2023-05-10T10:32:20;18.30;73.40
6462;DHT22;3264;42.862;25.098;2023-05-10T10:34:49;17.90;67.10
6462;DHT22;3264;42.862;25.098;2023-05-10T10:37:18;17.70;63.40
6462;DHT22;3264;42.862;25.098;2023-05-10T10:39:48;17.20;62.60
6462;DHT22;3264;42.862;25.098;2023-05-10T10:45:24;17.30;58.60
6462;DHT22;3264;42.862;25.098;2023-05-10T10:48:19;17.40;60.80
6462;DHT22;3264;42.862;25.098;2023-05-10T10:50:56;17.70;59.30
6462;DHT22;3264;42.862;25.098;2023-05-10T10:53:26;17.50;59.10
6462;DHT22;3264;42.862;25.098;2023-05-10T10:56:06;17.50;65.40
6462;DHT22;3264;42.862;25.098;2023-05-10T10:58:36;17.10;60.90
6462;DHT22;3264;42.862;25.098;2023-05-10T11:01:13;16.80;60.90
6462;DHT22;3264;42.862;25.098;2023-05-10T11:06:30;16.80;66.80
6462;DHT22;3264;42.862;25.098;2023-05-10T11:09:05;16.80;66.40
6462;DHT22;3264;42.862;25.098;2023-05-10T11:11:37;16.90;62.90
6462;DHT22;3264;42.862;25.098;2023-05-10T11:14:20;16.70;59.20
6462;DHT22;3264;42.862;25.098;2023-05-10T11:16:48;16.70;62.30
6462;DHT22;3264;42.862;25.098;2023-05-10T11:19:18;17.10;62.50
6462;DHT22;3264;42.862;25.098;2023-05-10T11:21:48;17.10;63.00
6462;DHT22;3264;42.862;25.098;2023-05-10T11:24:17;16.60;65.30
6462;DHT22;3264;42.862;25.098;2023-05-10T11:26:50;16.90;70.90
6462;DHT22;3264;42.862;25.098;2023-05-10T11:29:19;17.10;63.90
6462;DHT22;3264;42.862;25.098;2023-05-10T11:31:48;16.60;62.00
6462;DHT22;3264;42.862;25.098;2023-05-10T11:34:25;16.50;63.90
6462;DHT22;3264;42.862;25.098;2023-05-10T11:36:54;17.70;63.80
6462;DHT22;3264;42.862;25.098;2023-05-10T11:39:26;17.80;67.50
6462;DHT22;3264;42.862;25.098;2023-05-10T11:41:56;18.40;66.70
6462;DHT22;3264;42.862;25.098;2023-05-10T11:44:29;17.90;59.90
6462;DHT22;3264;42.862;25.098;2023-05-10T11:46:59;17.70;59.60
6462;DHT22;3264;42.862;25.098;2023-05-10T11:49:27;18.30;63.10
6462;DHT22;3264;42.862;25.098;2023-05-10T11:52:11;17.70;63.40
6462;DHT22;3264;42.862;25.098;2023-05-10T11:54:46;17.20;64.40
6462;DHT22;3264;42.862;25.098;2023-05-10T11:57:20;17.70;68.30
6462;DHT22;3264;42.862;25.098;2023-05-10T11:59:53;18.10;63.50
6462;DHT22;3264;42.862;25.098;2023-05-10T12:02:21;17.90;62.70
6462;DHT22;3264;42.862;25.098;2023-05-10T12:04:51;17.30;64.50
6462;DHT22;3264;42.862;25.098;2023-05-10T12:07:19;17.10;61.10
6462;DHT22;3264;42.862;25.098;2023-05-10T12:10:06;16.70;62.90
6462;DHT22;3264;42.862;25.098;2023-05-10T12:12:40;17.00;62.50
6462;DHT22;3264;42.862;25.098;2023-05-10T12:15:16;16.80;61.90
6462;DHT22;3264;42.862;25.098;2023-05-10T12:17:45;16.30;62.50
6462;DHT22;3264;42.862;25.098;2023-05-10T12:20:14;17.00;67.40
6462;DHT22;3264;42.862;25.098;2023-05-10T12:22:48;17.40;72.40
6462;DHT22;3264;42.862;25.098;2023-05-10T12:25:18;17.00;62.90
6462;DHT22;3264;42.862;25.098;2023-05-10T12:27:51;17.90;75.30
6462;DHT22;3264;42.862;25.098;2023-05-10T12:30:23;18.20;62.90
6462;DHT22;3264;42.862;25.098;2023-05-10T12:32:52;18.00;63.70
6462;DHT22;3264;42.862;25.098;2023-05-10T12:35:20;18.40;65.50
6462;DHT22;3264;42.862;25.098;2023-05-10T12:37:51;17.60;61.50
6462;DHT22;3264;42.862;25.098;2023-05-10T12:40:18;17.90;61.00
6462;DHT22;3264;42.862;25.098;2023-05-10T12:42:46;17.90;60.10
6462;DHT22;3264;42.862;25.098;2023-05-10T12:45:17;17.70;63.00
6462;DHT22;3264;42.862;25.098;2023-05-10T12:47:45;17.40;60.30
6462;DHT22;3264;42.862;25.098;2023-05-10T12:50:14;17.80;67.40
6462;DHT22;3264;42.862;25.098;2023-05-10T12:52:42;17.40;61.40
6462;DHT22;3264;42.862;25.098;2023-05-10T12:55:10;17.00;70.60
6462;DHT22;3264;42.862;25.098;2023-05-10T12:57:39;16.90;64.20
6462;DHT22;3264;42.862;25.098;2023-05-10T13:00:08;17.70;69.20
6462;DHT22;3264;42.862;25.098;2023-05-10T13:02:38;17.70;60.60
6462;DHT22;3264;42.862;25.098;2023-05-10T13:05:07;18.20;66.10
6462;DHT22;3264;42.862;25.098;2023-05-10T13:07:35;17.50;60.30
6462;DHT22;3264;42.862;25.098;2023-05-10T13:10:03;17.80;64.50
6462;DHT22;3264;42.862;25.098;2023-05-10T13:12:31;17.40;61.40
6462;DHT22;3264;42.862;25.098;2023-05-10T13:14:59;17.10;64.30
6462;DHT22;3264;42.862;25.098;2023-05-10T13:17:27;17.00;63.70
6462;DHT22;3264;42.862;25.098;2023-05-10T13:19:56;17.20;63.40
6462;DHT22;3264;42.862;25.098;2023-05-10T13:22:24;17.20;73.50
6462;DHT22;3264;42.862;25.098;2023-05-10T13:24:52;16.70;69.30
6462;DHT22;3264;42.862;25.098;2023-05-10T13:27:20;16.20;65.60
6462;DHT22;3264;42.862;25.098;2023-05-10T13:29:47;16.50;68.60
6462;DHT22;3264;42.862;25.098;2023-05-10T13:32:16;15.90;70.20
6462;DHT22;3264;42.862;25.098;2023-05-10T13:34:44;16.00;71.70
6462;DHT22;3264;42.862;25.098;2023-05-10T13:37:13;16.10;69.20
6462;DHT22;3264;42.862;25.098;2023-05-10T13:39:40;16.00;68.70
6462;DHT22;3264;42.862;25.098;2023-05-10T13:42:09;16.10;69.60
6462;DHT22;3264;42.862;25.098;2023-05-10T13:44:36;16.00;70.80
6462;DHT22;3264;42.862;25.098;2023-05-10T13:47:04;16.30;70.90
6462;DHT22;3264;42.862;25.098;2023-05-10T13:49:32;15.90;69.80
6462;DHT22;3264;42.862;25.098;2023-05-10T13:52:02;15.40;71.10
6462;DHT22;3264;42.862;25.098;2023-05-10T13:54:34;15.00;70.40
6462;DHT22;3264;42.862;25.098;2023-05-10T13:57:03;15.30;71.80
6462;DHT22;3264;42.862;25.098;2023-05-10T13:59:31;14.90;71.50
6462;DHT22;3264;42.862;25.098;2023-05-10T14:02:00;15.30;77.70
6462;DHT22;3264;42.862;25.098;2023-05-10T14:04:28;15.10;73.40
6462;DHT22;3264;42.862;25.098;2023-05-10T14:06:56;15.40;74.60
6462;DHT22;3264;42.862;25.098;2023-05-10T14:09:24;15.80;70.00
6462;DHT22;3264;42.862;25.098;2023-05-10T14:11:54;16.30;74.10
6462;DHT22;3264;42.862;25.098;2023-05-10T14:14:23;16.70;73.30
6462;DHT22;3264;42.862;25.098;2023-05-10T14:16:52;16.20;72.30
6462;DHT22;3264;42.862;25.098;2023-05-10T14:19:20;15.70;70.90
6462;DHT22;3264;42.862;25.098;2023-05-10T14:21:47;15.90;71.10
6462;DHT22;3264;42.862;25.098;2023-05-10T14:24:30;15.80;72.50
6462;DHT22;3264;42.862;25.098;2023-05-10T14:26:59;15.90;75.60
6462;DHT22;3264;42.862;25.098;2023-05-10T14:29:27;15.40;69.50
6462;DHT22;3264;42.862;25.098;2023-05-10T14:31:56;15.40;71.60
6462;DHT22;3264;42.862;25.098;2023-05-10T14:34:23;15.60;72.50
6462;DHT22;3264;42.862;25.098;2023-05-10T14:36:51;15.90;77.30
6462;DHT22;3264;42.862;25.098;2023-05-10T14:39:20;16.00;74.10
6462;DHT22;3264;42.862;25.098;2023-05-10T14:41:48;16.00;77.80
6462;DHT22;3264;42.862;25.098;2023-05-10T14:44:18;15.50;71.60
6462;DHT22;3264;42.862;25.098;2023-05-10T14:46:46;15.10;70.40
6462;DHT22;3264;42.862;25.098;2023-05-10T14:49:15;15.20;75.00
6462;DHT22;3264;42.862;25.098;2023-05-10T14:51:43;15.40;72.90
6462;DHT22;3264;42.862;25.098;2023-05-10T14:54:11;15.00;71.30
6462;DHT22;3264;42.862;25.098;2023-05-10T14:56:38;14.90;70.80
6462;DHT22;3264;42.862;25.098;2023-05-10T14:59:08;15.10;76.50
6462;DHT22;3264;42.862;25.098;2023-05-10T15:01:38;14.90;73.50
6462;DHT22;3264;42.862;25.098;2023-05-10T15:04:08;14.90;73.40
6462;DHT22;3264;42.862;25.098;2023-05-10T15:06:36;14.70;72.10
6462;DHT22;3264;42.862;25.098;2023-05-10T15:09:04;14.70;74.20
6462;DHT22;3264;42.862;25.098;2023-05-10T15:11:32;14.80;72.90
6462;DHT22;3264;42.862;25.098;2023-05-10T15:14:01;14.60;71.60
6462;DHT22;3264;42.862;25.098;2023-05-10T15:16:29;14.70;76.60
6462;DHT22;3264;42.862;25.098;2023-05-10T15:18:58;14.60;78.20
6462;DHT22;3264;42.862;25.098;2023-05-10T15:21:26;14.50;71.90
6462;DHT22;3264;42.862;25.098;2023-05-10T15:23:54;14.60;72.30
6462;DHT22;3264;42.862;25.098;2023-05-10T15:26:22;14.40;71.60
6462;DHT22;3264;42.862;25.098;2023-05-10T15:28:52;14.80;73.00
6462;DHT22;3264;42.862;25.098;2023-05-10T15:31:21;14.40;71.20
6462;DHT22;3264;42.862;25.098;2023-05-10T15:33:49;14.70;73.30
6462;DHT22;3264;42.862;25.098;2023-05-10T15:36:19;14.80;73.20
6462;DHT22;3264;42.862;25.098;2023-05-10T15:38:48;14.70;72.90
6462;DHT22;3264;42.862;25.098;2023-05-10T15:41:16;14.40;70.50
6462;DHT22;3264;42.862;25.098;2023-05-10T15:43:44;14.40;72.30
6462;DHT22;3264;42.862;25.098;2023-05-10T15:46:13;14.30;70.50
6462;DHT22;3264;42.862;25.098;2023-05-10T15:48:40;14.30;70.60
6462;DHT22;3264;42.862;25.098;2023-05-10T15:51:09;14.30;69.20
6462;DHT22;3264;42.862;25.098;2023-05-10T15:53:38;14.20;70.20
6462;DHT22;3264;42.862;25.098;2023-05-10T15:56:07;14.20;70.10
6462;DHT22;3264;42.862;25.098;2023-05-10T15:58:34;14.10;71.60
6462;DHT22;3264;42.862;25.098;2023-05-10T16:01:04;14.00;70.70
6462;DHT22;3264;42.862;25.098;2023-05-10T16:03:32;14.00;72.10
6462;DHT22;3264;42.862;25.098;2023-05-10T16:06:01;14.00;74.10
6462;DHT22;3264;42.862;25.098;2023-05-10T16:08:30;14.00;72.90
6462;DHT22;3264;42.862;25.098;2023-05-10T16:11:00;13.90;77.00
6462;DHT22;3264;42.862;25.098;2023-05-10T16:13:28;13.90;75.30
6462;DHT22;3264;42.862;25.098;2023-05-10T16:15:57;13.90;73.10
6462;DHT22;3264;42.862;25.098;2023-05-10T16:18:26;13.90;77.30